createdAt,value
2023-04-27T00:00:41.550Z,4.13
2023-04-27T00:03:51.762Z,4.08
2023-04-27T00:06:59.971Z,4.03
2023-04-27T00:10:09.947Z,4.00
2023-04-27T00:13:18.084Z,3.97
2023-04-27T00:16:26.732Z,3.99
2023-04-27T00:19:36.279Z,3.95
2023-04-27T00:22:44.523Z,3.95
2023-04-27T00:25:52.620Z,3.92
2023-04-27T00:29:00.743Z,3.96
2023-04-27T00:32:08.903Z,3.95
2023-04-27T00:35:18.690Z,4.03
2023-04-27T00:38:26.893Z,4.02
2023-04-27T00:41:38.291Z,4.01
2023-04-27T00:44:46.859Z,4.07
2023-04-27T00:47:56.377Z,4.09
2023-04-27T00:51:07.121Z,4.05
2023-04-27T00:54:16.555Z,4.06
2023-04-27T00:57:24.769Z,4.03
2023-04-27T01:00:33.080Z,4.12
2023-04-27T01:03:42.745Z,4.18
2023-04-27T01:06:52.391Z,4.21
2023-04-27T01:10:00.530Z,4.25
2023-04-27T01:13:08.664Z,4.23
2023-04-27T01:16:19.275Z,4.31
2023-04-27T01:19:27.526Z,4.33
2023-04-27T01:22:37.018Z,4.31
2023-04-27T01:25:46.665Z,4.39
2023-04-27T01:28:54.921Z,4.42
2023-04-27T01:32:03.069Z,4.54
2023-04-27T01:35:11.716Z,4.43
2023-04-27T01:38:19.879Z,4.38
2023-04-27T01:41:29.367Z,4.45
2023-04-27T01:44:38.214Z,4.34
2023-04-27T01:47:46.456Z,4.17
2023-04-27T01:50:55.004Z,4.15
2023-04-27T01:54:03.365Z,4.14
2023-04-27T01:57:14.216Z,4.17
2023-04-27T02:00:22.596Z,4.16
2023-04-27T02:03:30.944Z,4.16
2023-04-27T02:06:39.208Z,4.33
2023-04-27T02:09:47.922Z,4.32
2023-04-27T02:12:57.902Z,4.31
2023-04-27T02:16:07.128Z,4.16
2023-04-27T02:19:15.646Z,3.98
2023-04-27T02:22:24.006Z,3.96
2023-04-27T02:25:32.113Z,3.81
2023-04-27T02:28:41.540Z,3.73
2023-04-27T02:31:50.154Z,3.75
2023-04-27T02:34:58.342Z,3.68
2023-04-27T02:38:08.727Z,3.68
2023-04-27T02:41:19.250Z,3.72
2023-04-27T02:44:28.698Z,3.50
2023-04-27T02:47:37.087Z,3.51
2023-04-27T02:50:46.426Z,3.63
2023-04-27T02:53:55.205Z,3.63
2023-04-27T02:57:03.745Z,3.55
2023-04-27T03:00:14.641Z,3.47
2023-04-27T03:03:23.329Z,3.43
2023-04-27T03:06:31.718Z,3.49
2023-04-27T03:09:39.932Z,3.55
2023-04-27T03:12:48.121Z,3.60
2023-04-27T03:15:57.722Z,3.56
2023-04-27T03:19:06.169Z,3.50
2023-04-27T03:22:14.537Z,3.65
2023-04-27T03:25:23.887Z,3.57
2023-04-27T03:28:31.958Z,3.63
2023-04-27T03:31:42.008Z,3.68
2023-04-27T03:34:52.301Z,3.79
2023-04-27T03:38:00.457Z,3.84
2023-04-27T03:41:08.605Z,3.90
2023-04-27T03:44:17.330Z,3.93
2023-04-27T03:47:27.194Z,4.02
2023-04-27T03:50:36.122Z,4.12
2023-04-27T03:53:44.251Z,3.95
2023-04-27T03:56:52.626Z,4.12
2023-04-27T04:00:01.236Z,4.19
2023-04-27T04:03:11.584Z,4.25
2023-04-27T04:06:19.911Z,4.32
2023-04-27T04:09:28.069Z,4.42
2023-04-27T04:12:36.553Z,4.41
2023-04-27T04:15:44.828Z,4.47
2023-04-27T04:18:55.163Z,4.57
2023-04-27T04:22:03.481Z,4.58
2023-04-27T04:25:11.654Z,4.42
2023-04-27T04:28:20.018Z,4.45
2023-04-27T04:31:29.740Z,4.39
2023-04-27T04:34:39.641Z,4.54
2023-04-27T04:37:48.008Z,4.72
2023-04-27T04:40:56.770Z,4.87
2023-04-27T04:44:05.516Z,5.02
2023-04-27T04:47:13.695Z,5.14
2023-04-27T04:50:23.867Z,5.26
2023-04-27T04:53:32.825Z,5.32
2023-04-27T04:56:40.994Z,5.47
2023-04-27T04:59:49.127Z,5.59
2023-04-27T05:02:57.460Z,5.68
2023-04-27T05:06:08.046Z,5.66
2023-04-27T05:09:16.212Z,5.67
2023-04-27T05:12:24.482Z,5.94
2023-04-27T05:15:32.619Z,6.08
2023-04-27T05:18:41.635Z,6.10
2023-04-27T05:21:51.298Z,6.23
2023-04-27T05:24:59.400Z,6.34
2023-04-27T05:28:07.776Z,6.49
2023-04-27T05:31:16.292Z,6.63
2023-04-27T05:34:24.452Z,6.73
2023-04-27T05:37:34.099Z,6.97
2023-04-27T05:40:42.221Z,7.15
2023-04-27T05:43:50.385Z,7.28
2023-04-27T05:46:58.631Z,7.63
2023-04-27T05:50:08.278Z,7.92
2023-04-27T05:53:18.238Z,8.16
2023-04-27T05:56:26.766Z,8.32
2023-04-27T05:59:34.948Z,8.39
2023-04-27T06:02:43.302Z,8.47
2023-04-27T06:05:58.642Z,8.24
2023-04-27T06:09:08.661Z,8.52
2023-04-27T06:12:16.786Z,8.81
2023-04-27T06:15:25.040Z,9.15
2023-04-27T06:18:33.285Z,9.37
2023-04-27T06:21:41.829Z,9.66
2023-04-27T06:24:51.681Z,10.03
2023-04-27T06:28:00.033Z,10.50
2023-04-27T06:31:08.496Z,10.70
2023-04-27T06:34:16.633Z,9.84
2023-04-27T06:37:25.339Z,10.02
2023-04-27T06:40:35.010Z,9.37
2023-04-27T06:43:43.282Z,8.99
2023-04-27T06:46:51.718Z,9.24
2023-04-27T06:50:00.571Z,9.08
2023-04-27T06:53:09.237Z,8.89
2023-04-27T06:56:18.773Z,9.33
2023-04-27T06:59:27.321Z,10.01
2023-04-27T07:02:35.498Z,10.27
2023-04-27T07:05:44.015Z,10.76
2023-04-27T07:08:52.185Z,11.18
2023-04-27T07:12:03.100Z,10.71
2023-04-27T07:15:11.695Z,11.09
2023-04-27T07:18:20.129Z,10.25
2023-04-27T07:21:28.624Z,10.41
2023-04-27T07:24:36.717Z,10.47
2023-04-27T07:27:46.831Z,11.18
2023-04-27T07:30:55.223Z,10.84
2023-04-27T07:34:03.827Z,11.36
2023-04-27T07:37:12.157Z,11.87
2023-04-27T07:40:22.142Z,12.08
2023-04-27T07:43:33.041Z,12.37
2023-04-27T07:46:41.431Z,12.57
2023-04-27T07:49:49.548Z,11.45
2023-04-27T07:52:58.441Z,10.53
2023-04-27T07:56:07.991Z,10.77
2023-04-27T07:59:17.596Z,11.84
2023-04-27T08:02:30.526Z,12.14
2023-04-27T08:05:39.285Z,12.06
2023-04-27T08:08:48.848Z,12.43
2023-04-27T08:11:58.871Z,12.52
2023-04-27T08:15:10.585Z,11.72
2023-04-27T08:18:19.672Z,11.64
2023-04-27T08:21:28.565Z,11.89
2023-04-27T08:24:37.432Z,13.77
2023-04-27T08:27:45.629Z,12.72
2023-04-27T08:30:55.496Z,12.42
2023-04-27T08:34:03.820Z,12.72
2023-04-27T08:37:12.318Z,13.89
2023-04-27T08:40:20.931Z,13.78
2023-04-27T08:43:34.443Z,12.94
2023-04-27T08:46:44.068Z,12.64
2023-04-27T08:49:52.321Z,13.70
2023-04-27T08:53:00.728Z,15.13
2023-04-27T08:56:09.406Z,13.04
2023-04-27T08:59:18.076Z,12.46
2023-04-27T09:02:29.704Z,12.83
2023-04-27T09:05:42.285Z,14.49
2023-04-27T09:08:54.710Z,13.63
2023-04-27T09:12:03.069Z,13.26
2023-04-27T09:15:11.872Z,13.88
2023-04-27T09:18:24.012Z,14.60
2023-04-27T09:21:32.628Z,14.56
2023-04-27T09:24:51.710Z,15.35
2023-04-27T09:28:02.131Z,15.48
2023-04-27T09:31:11.808Z,15.14
2023-04-27T09:34:21.517Z,14.12
2023-04-27T09:37:32.320Z,14.44
2023-04-27T09:40:41.521Z,14.98
2023-04-27T09:43:50.514Z,15.56
2023-04-27T09:47:00.673Z,14.93
2023-04-27T09:50:13.867Z,14.25
2023-04-27T09:53:27.659Z,14.04
2023-04-27T09:57:02.332Z,15.10
2023-04-27T10:00:27.560Z,16.46
2023-04-27T10:03:56.691Z,17.28
2023-04-27T10:07:09.609Z,16.37
2023-04-27T10:10:20.332Z,16.67
2023-04-27T10:13:32.775Z,15.65
2023-04-27T10:16:47.473Z,14.16
2023-04-27T10:19:59.256Z,14.63
2023-04-27T10:23:08.823Z,13.99
2023-04-27T10:26:24.754Z,14.26
2023-04-27T10:29:42.074Z,14.77
2023-04-27T10:32:56.343Z,15.30
2023-04-27T10:36:14.924Z,15.95
2023-04-27T10:39:47.983Z,16.50
2023-04-27T10:42:57.340Z,16.87
2023-04-27T10:46:10.614Z,16.04
2023-04-27T10:49:19.282Z,15.52
2023-04-27T10:52:28.671Z,17.17
2023-04-27T10:55:38.990Z,15.16
2023-04-27T10:58:49.266Z,14.79
2023-04-27T11:01:57.977Z,14.78
2023-04-27T11:05:19.001Z,15.53
2023-04-27T11:08:27.804Z,16.58
2023-04-27T11:11:37.729Z,17.05
2023-04-27T11:14:46.088Z,16.40
2023-04-27T11:18:05.748Z,16.91
2023-04-27T11:21:16.952Z,17.15
2023-04-27T11:24:26.279Z,15.12
2023-04-27T11:27:40.673Z,14.19
2023-04-27T11:30:56.497Z,14.32
2023-04-27T11:34:04.732Z,14.28
2023-04-27T11:37:24.329Z,14.56
2023-04-27T11:40:34.527Z,15.88
2023-04-27T11:43:49.189Z,16.15
2023-04-27T11:46:57.558Z,15.76
2023-04-27T11:50:08.609Z,15.32
2023-04-27T11:53:18.810Z,16.46
2023-04-27T11:56:37.518Z,16.88
2023-04-27T11:59:47.436Z,15.97
2023-04-27T12:02:55.798Z,15.26
2023-04-27T12:06:21.579Z,14.29
2023-04-27T12:09:32.703Z,14.12
2023-04-27T12:12:41.003Z,14.10
2023-04-27T12:15:50.667Z,14.70
2023-04-27T12:18:58.809Z,14.92
2023-04-27T12:22:08.413Z,14.16
2023-04-27T12:25:17.607Z,14.41
2023-04-27T12:28:26.000Z,14.10
2023-04-27T12:31:35.756Z,14.87
2023-04-27T12:34:44.052Z,15.09
2023-04-27T12:37:52.763Z,15.11
2023-04-27T12:41:03.931Z,14.92
2023-04-27T12:44:13.272Z,15.99
2023-04-27T12:50:37.793Z,15.44
2023-04-27T12:53:45.948Z,14.82
2023-04-27T12:56:54.406Z,15.54
2023-04-27T13:00:05.388Z,16.39
2023-04-27T13:03:15.045Z,16.39
2023-04-27T13:06:23.752Z,16.00
2023-04-27T13:09:32.089Z,16.01
2023-04-27T13:12:40.362Z,15.71
2023-04-27T13:15:48.538Z,15.86
2023-04-27T13:18:58.048Z,15.36
2023-04-27T13:22:09.715Z,15.52
2023-04-27T13:25:19.989Z,15.65
2023-04-27T13:28:28.141Z,16.11
2023-04-27T13:31:36.637Z,15.89
2023-04-27T13:34:46.296Z,15.86
2023-04-27T13:37:55.002Z,15.03
2023-04-27T13:41:03.726Z,14.47
2023-04-27T13:44:12.394Z,14.47
2023-04-27T13:47:21.021Z,14.26
2023-04-27T13:50:31.008Z,14.30
2023-04-27T13:53:39.336Z,14.42
2023-04-27T13:56:47.697Z,14.85
2023-04-27T13:59:55.903Z,15.24
2023-04-27T14:03:05.218Z,15.20
2023-04-27T14:06:16.187Z,15.07
2023-04-27T14:09:26.961Z,15.45
2023-04-27T14:12:35.896Z,15.39
2023-04-27T14:15:44.246Z,15.14
2023-04-27T14:18:52.433Z,15.44
2023-04-27T14:22:04.602Z,15.63
2023-04-27T14:25:13.015Z,16.14
2023-04-27T14:28:21.467Z,16.12
2023-04-27T14:31:29.824Z,16.02
2023-04-27T14:34:38.442Z,16.73
2023-04-27T14:37:48.189Z,17.21
2023-04-27T14:40:56.689Z,17.05
2023-04-27T14:44:09.036Z,16.83
2023-04-27T14:47:19.309Z,16.72
2023-04-27T14:50:29.010Z,16.82
2023-04-27T14:53:38.632Z,16.96
2023-04-27T14:56:48.672Z,16.90
2023-04-27T14:59:57.877Z,17.41
2023-04-27T15:03:06.585Z,17.81
2023-04-27T15:06:15.008Z,17.43
2023-04-27T15:09:24.865Z,17.22
2023-04-27T15:12:33.061Z,16.86
2023-04-27T15:15:41.209Z,17.08
2023-04-27T15:18:49.946Z,17.30
2023-04-27T15:21:58.519Z,17.24
2023-04-27T15:25:11.203Z,17.10
2023-04-27T15:28:20.178Z,17.16
2023-04-27T15:31:28.497Z,17.07
2023-04-27T15:34:36.784Z,17.21
2023-04-27T15:37:45.250Z,16.27
2023-04-27T15:40:55.363Z,16.06
2023-04-27T15:44:03.795Z,16.17
2023-04-27T15:47:12.147Z,16.56
2023-04-27T15:50:22.983Z,16.09
2023-04-27T15:53:31.920Z,15.75
2023-04-27T15:56:41.907Z,15.85
2023-04-27T15:59:50.301Z,15.67
2023-04-27T16:02:58.689Z,15.38
2023-04-27T16:06:08.403Z,15.22
2023-04-27T16:09:17.163Z,15.21
2023-04-27T16:12:27.143Z,15.41
2023-04-27T16:15:35.596Z,15.50
2023-04-27T16:18:43.987Z,15.70
2023-04-27T16:21:52.286Z,15.87
2023-04-27T16:25:00.653Z,15.95
2023-04-27T16:28:10.384Z,15.88
2023-04-27T16:31:19.174Z,16.12
2023-04-27T16:34:27.813Z,15.98
2023-04-27T16:37:36.505Z,16.06
2023-04-27T16:40:44.823Z,15.95
2023-04-27T16:43:54.765Z,15.91
2023-04-27T16:47:03.301Z,15.91
2023-04-27T16:50:12.386Z,15.88
2023-04-27T16:53:21.542Z,15.51
2023-04-27T16:56:32.973Z,15.56
2023-04-27T16:59:43.072Z,16.87
2023-04-27T17:02:51.521Z,18.61
2023-04-27T17:05:59.737Z,17.86
2023-04-27T17:09:10.015Z,16.92
2023-04-27T17:12:18.599Z,16.28
2023-04-27T17:15:28.801Z,15.73
2023-04-27T17:18:37.068Z,15.22
2023-04-27T17:21:45.233Z,15.02
2023-04-27T17:24:53.611Z,14.93
2023-04-27T17:28:02.091Z,14.74
2023-04-27T17:31:11.705Z,14.68
2023-04-27T17:34:19.888Z,14.38
2023-04-27T17:37:28.461Z,14.17
2023-04-27T17:40:36.907Z,14.01
2023-04-27T17:43:45.836Z,13.85
2023-04-27T17:46:56.036Z,13.83
2023-04-27T17:50:05.779Z,13.68
2023-04-27T17:53:15.362Z,13.53
2023-04-27T17:56:24.247Z,13.38
2023-04-27T17:59:32.474Z,13.22
2023-04-27T18:02:42.709Z,13.04
2023-04-27T18:05:51.023Z,12.83
2023-04-27T18:08:59.635Z,12.63
2023-04-27T18:12:11.130Z,12.43
2023-04-27T18:15:20.663Z,12.19
2023-04-27T18:18:30.803Z,11.96
2023-04-27T18:21:38.892Z,11.74
2023-04-27T18:24:47.656Z,11.56
2023-04-27T18:27:56.250Z,11.38
2023-04-27T18:31:04.969Z,11.21
2023-04-27T18:34:14.569Z,10.98
2023-04-27T18:37:23.018Z,10.79
2023-04-27T18:40:31.640Z,10.63
2023-04-27T18:43:39.885Z,10.48
2023-04-27T18:46:48.779Z,10.35
2023-04-27T18:49:58.506Z,10.24
2023-04-27T18:53:07.161Z,10.10
2023-04-27T18:56:15.713Z,9.99
2023-04-27T18:59:26.203Z,9.99
2023-04-27T19:02:34.829Z,9.86
2023-04-27T19:05:44.441Z,9.80
2023-04-27T19:08:52.809Z,9.67
2023-04-27T19:12:03.549Z,9.55
2023-04-27T19:15:14.240Z,9.49
2023-04-27T19:18:22.818Z,9.39
2023-04-27T19:21:32.944Z,9.34
2023-04-27T19:24:41.240Z,9.26
2023-04-27T19:27:49.747Z,9.18
2023-04-27T19:30:57.906Z,9.07
2023-04-27T19:34:06.266Z,8.99
2023-04-27T19:37:16.116Z,8.92
2023-04-27T19:40:24.473Z,8.85
2023-04-27T19:43:32.697Z,8.77
2023-04-27T19:46:41.141Z,8.72
2023-04-27T19:49:49.353Z,8.66
2023-04-27T19:52:59.615Z,8.56
2023-04-27T19:56:08.622Z,8.57
2023-04-27T19:59:17.072Z,8.51
2023-04-27T20:02:25.356Z,8.47
2023-04-27T20:05:34.324Z,8.46
2023-04-27T20:08:44.082Z,8.37
2023-04-27T20:11:52.868Z,8.26
2023-04-27T20:15:01.121Z,8.23
2023-04-27T20:18:09.885Z,8.18
2023-04-27T20:21:19.142Z,8.08
2023-04-27T20:24:29.024Z,8.03
2023-04-27T20:27:37.534Z,7.94
2023-04-27T20:30:46.432Z,7.88
2023-04-27T20:33:55.704Z,7.80
2023-04-27T20:37:05.351Z,7.74
2023-04-27T20:40:17.382Z,7.70
2023-04-27T20:43:27.361Z,7.77
2023-04-27T20:46:36.546Z,7.70
2023-04-27T20:49:44.685Z,7.61
2023-04-27T20:52:53.237Z,7.57
2023-04-27T20:56:03.793Z,7.52
2023-04-27T20:59:12.124Z,7.52
2023-04-27T21:02:20.423Z,7.52
2023-04-27T21:05:30.548Z,7.45
2023-04-27T21:08:40.275Z,7.39
2023-04-27T21:11:54.667Z,7.33
2023-04-27T21:15:03.629Z,7.28
2023-04-27T21:18:22.551Z,7.23
2023-04-27T21:21:37.647Z,7.16
2023-04-27T21:24:45.798Z,7.11
2023-04-27T21:27:55.480Z,7.10
2023-04-27T21:31:04.454Z,7.02
2023-04-27T21:34:12.609Z,6.97
2023-04-27T21:37:21.103Z,6.91
2023-04-27T21:40:29.411Z,6.89
2023-04-27T21:43:41.874Z,6.85
2023-04-27T21:46:50.179Z,6.86
2023-04-27T21:49:58.390Z,6.87
2023-04-27T21:53:06.535Z,6.84
2023-04-27T21:56:14.813Z,6.84
2023-04-27T21:59:24.759Z,6.76
2023-04-27T22:02:33.927Z,6.73
2023-04-27T22:05:42.108Z,6.74
2023-04-27T22:08:50.765Z,6.67
2023-04-27T22:11:58.923Z,6.61
2023-04-27T22:15:10.166Z,6.58
2023-04-27T22:18:18.645Z,6.58
2023-04-27T22:21:27.315Z,6.41
2023-04-27T22:24:35.673Z,6.43
2023-04-27T22:27:45.319Z,6.44
2023-04-27T22:30:56.271Z,6.43
2023-04-27T22:34:05.084Z,6.41
2023-04-27T22:37:13.227Z,6.46
2023-04-27T22:40:21.581Z,6.44
2023-04-27T22:43:30.092Z,6.48
2023-04-27T22:46:39.922Z,6.55
2023-04-27T22:49:48.374Z,6.60
2023-04-27T22:52:56.869Z,6.66
2023-04-27T22:56:05.919Z,6.73
2023-04-27T22:59:14.176Z,6.74
2023-04-27T23:02:26.144Z,6.80
2023-04-27T23:05:34.502Z,6.70
2023-04-27T23:08:45.359Z,6.69
2023-04-27T23:11:54.889Z,6.68
2023-04-27T23:15:03.062Z,6.67
2023-04-27T23:18:12.774Z,6.70
2023-04-27T23:21:21.127Z,6.66
2023-04-27T23:24:29.289Z,6.68
2023-04-27T23:27:37.432Z,6.79
2023-04-27T23:30:53.088Z,6.81
2023-04-27T23:34:02.613Z,6.83
2023-04-27T23:37:10.817Z,6.90
2023-04-27T23:40:19.021Z,6.83
2023-04-27T23:43:27.620Z,6.77
2023-04-27T23:46:35.810Z,6.80
2023-04-27T23:49:47.068Z,6.85
2023-04-27T23:52:55.201Z,6.83
2023-04-27T23:56:03.408Z,6.75
2023-04-27T23:59:11.969Z,6.71
